Time;durP1;ratioP1;P1;durP2;ratioP2;P2;SDS_P1;SDS_P2;PMS_P1;PMS_P2;Temp;Humidity;BMP_temperature;BMP_pressure;BME280_temperature;BME280_humidity;BME280_pressure;Samples;Min_cycle;Max_cycle;Signal;HPM_P1;HPM_P2
2022/04/14 01:29:58;;;;;;;6.45;4.20;;;;;;;13.21;63.47;99854.59;1088965;46;20026;-78
2022/04/14 01:30:59;;;;;;;7.72;4.15;;;;;;;13.26;63.02;99854.91;1087960;54;20030;-78
2022/04/14 01:32:04;;;;;;;7.05;4.25;;;;;;;13.34;62.63;99854.09;1088039;54;20039;-78
2022/04/14 01:33:06;;;;;;;7.28;4.40;;;;;;;13.41;62.62;99857.81;1087985;54;20035;-78
2022/04/14 01:34:10;;;;;;;8.43;4.70;;;;;;;13.42;62.85;99858.63;1087975;54;20410;-79
2022/04/14 01:35:14;;;;;;;8.23;5.10;;;;;;;13.36;62.98;99857.44;1088011;54;20041;-78
2022/04/14 01:36:16;;;;;;;9.40;5.40;;;;;;;13.29;63.27;99871.69;1087921;54;20038;-78
2022/04/14 01:37:21;;;;;;;8.52;5.38;;;;;;;13.24;63.47;99864.97;1088200;54;20014;-78
2022/04/14 01:38:22;;;;;;;8.93;5.47;;;;;;;13.25;63.81;99865.81;1089838;46;20038;-78
2022/04/14 01:39:27;;;;;;;10.73;5.90;;;;;;;13.30;63.72;99862.66;1091345;46;20034;-77
2022/04/14 01:40:31;;;;;;;11.93;6.18;;;;;;;13.31;63.67;99864.31;1090983;46;20063;-78
2022/04/14 01:41:33;;;;;;;13.05;5.75;;;;;;;13.40;63.21;99868.72;1088296;54;20029;-78
2022/04/14 01:42:37;;;;;;;8.48;5.00;;;;;;;13.43;63.29;99868.38;1088238;54;20027;-78
2022/04/14 01:43:39;;;;;;;9.68;4.90;;;;;;;13.44;63.45;99875.41;1087886;54;20437;-77
2022/04/14 01:44:43;;;;;;;10.82;5.70;;;;;;;13.51;63.18;99878.28;1088133;54;20034;-77
2022/04/14 01:45:50;;;;;;;8.20;4.85;;;;;;;13.55;62.91;99874.25;1088332;54;20041;-79
2022/04/14 01:46:55;;;;;;;9.68;5.20;;;;;;;13.42;63.39;99872.06;1088308;54;20038;-78
2022/04/14 01:47:59;;;;;;;10.68;5.60;;;;;;;13.29;63.73;99882.44;1089362;46;20038;-78
2022/04/14 01:49:01;;;;;;;12.70;5.80;;;;;;;13.26;63.91;99881.75;1088322;54;20035;-78
2022/04/14 01:50:07;;;;;;;11.85;5.75;;;;;;;13.23;63.97;99879.41;1088281;54;20037;-77
2022/04/14 01:51:08;;;;;;;9.20;5.10;;;;;;;13.38;63.79;99886.81;1088366;54;20035;-78
2022/04/14 01:52:13;;;;;;;9.05;5.40;;;;;;;13.39;63.67;99872.41;1088293;54;20030;-77
2022/04/14 01:53:14;;;;;;;10.68;6.00;;;;;;;13.36;63.49;99875.38;1088295;54;20034;-78
2022/04/14 01:54:19;;;;;;;9.77;5.57;;;;;;;13.35;63.96;99876.38;1088351;46;20066;-78
2022/04/14 01:55:23;;;;;;;8.43;4.78;;;;;;;13.38;63.74;99881.44;1088802;46;20033;-77
2022/04/14 01:56:25;;;;;;;10.02;5.40;;;;;;;13.35;63.78;99876.38;1088339;54;20045;-78
2022/04/14 01:57:29;;;;;;;8.85;5.55;;;;;;;13.35;63.56;99881.75;1088300;54;20041;-78
2022/04/14 01:58:31;;;;;;;11.95;6.85;;;;;;;13.29;64.02;99882.44;1088290;54;20034;-78
2022/04/14 01:59:36;;;;;;;10.80;6.22;;;;;;;13.14;64.26;99880.38;1087918;54;20132;-77
2022/04/14 02:00:37;;;;;;;8.75;5.90;;;;;;;13.06;64.81;99889.28;1087925;54;20057;-78
2022/04/14 02:01:44;;;;;;;9.60;5.88;;;;;;;12.98;65.06;99885.75;1091293;46;20123;-78
2022/04/14 02:02:46;;;;;;;10.55;6.07;;;;;;;12.99;65.02;99884.72;1088295;54;20038;-77
2022/04/14 02:03:50;;;;;;;11.90;6.18;;;;;;;13.00;65.05;99883.72;1093315;39;20672;-77
2022/04/14 02:04:52;;;;;;;10.85;5.90;;;;;;;12.91;65.21;99880.19;1088229;54;20034;-77
2022/04/14 02:05:56;;;;;;;11.95;6.80;;;;;;;12.83;65.54;99882.84;1088215;54;20036;-77
2022/04/14 02:06:58;;;;;;;12.18;6.30;;;;;;;12.78;65.71;99886.88;1088288;54;20042;-78
2022/04/14 02:08:02;;;;;;;11.80;6.63;;;;;;;12.70;65.92;99892.22;1089599;46;20034;-78
2022/04/14 02:09:03;;;;;;;8.75;6.03;;;;;;;12.64;66.45;99901.75;1088279;54;20035;-78
2022/04/14 02:10:09;;;;;;;11.88;6.30;;;;;;;12.66;66.54;99892.69;1088207;54;20031;-77
2022/04/14 02:11:10;;;;;;;13.00;7.28;;;;;;;12.57;66.73;99899.88;1089025;46;20026;-78
2022/04/14 02:12:15;;;;;;;15.20;6.90;;;;;;;12.59;66.69;99898.69;1088245;54;20030;-77
2022/04/14 02:13:16;;;;;;;12.90;6.32;;;;;;;12.53;67.11;99904.72;1088280;54;20041;-78
2022/04/14 02:14:20;;;;;;;11.07;6.82;;;;;;;12.41;67.20;99903.31;1088251;54;20041;-78
2022/04/14 02:15:22;;;;;;;12.88;5.88;;;;;;;12.36;67.57;99905.63;1089783;46;20042;-77
2022/04/14 02:16:26;;;;;;;11.15;6.32;;;;;;;12.32;67.52;99907.81;1087902;54;20037;-77
2022/04/14 02:17:30;;;;;;;12.23;5.95;;;;;;;12.24;67.97;99905.91;1089114;46;20045;-78
2022/04/14 02:18:35;;;;;;;8.57;5.78;;;;;;;12.19;68.35;99907.38;1088280;54;20026;-78
2022/04/14 02:19:36;;;;;;;10.80;7.00;;;;;;;12.09;68.27;99900.28;1088247;54;20034;-78
2022/04/14 02:20:41;;;;;;;12.40;6.78;;;;;;;12.11;68.47;99900.13;1088252;54;20038;-77
2022/04/14 02:21:43;;;;;;;10.20;6.03;;;;;;;12.12;68.23;99904.50;1088311;54;20048;-79
2022/04/14 02:22:47;;;;;;;11.63;5.95;;;;;;;12.08;68.28;99903.97;1088795;46;20025;-78
2022/04/14 02:23:50;;;;;;;11.27;6.60;;;;;;;12.04;68.57;99904.44;1089589;46;20031;-77
2022/04/14 02:24:55;;;;;;;9.90;5.82;;;;;;;11.98;68.83;99905.91;1088260;54;20057;-76
2022/04/14 02:25:56;;;;;;;9.63;6.15;;;;;;;11.97;68.70;99914.91;1088283;54;20045;-77
2022/04/14 02:27:01;;;;;;;10.63;6.25;;;;;;;11.93;69.15;99910.88;1087986;54;20107;-78
2022/04/14 02:28:04;;;;;;;10.73;6.88;;;;;;;11.95;69.13;99914.25;1088249;54;20041;-78
2022/04/14 02:29:09;;;;;;;13.55;6.18;;;;;;;11.93;68.90;99910.88;1088216;54;20042;-78
2022/04/14 02:30:12;;;;;;;11.82;5.55;;;;;;;11.94;69.07;99920.59;1088904;46;20035;-78
2022/04/14 02:31:16;;;;;;;10.98;5.90;;;;;;;11.98;68.81;99912.13;1088312;54;20102;-77
2022/04/14 02:32:20;;;;;;;9.65;6.47;;;;;;;12.00;68.73;99910.09;1088188;54;20040;-79
2022/04/14 02:33:25;;;;;;;10.25;6.20;;;;;;;11.92;68.78;99912.69;1087773;54;20686;-77
2022/04/14 02:34:29;;;;;;;11.15;5.53;;;;;;;11.91;68.52;99911.03;1088129;54;20086;-77
2022/04/14 02:35:31;;;;;;;9.75;5.65;;;;;;;11.86;68.90;99913.34;1088247;54;20034;-77
2022/04/14 02:36:35;;;;;;;8.32;5.28;;;;;;;11.90;68.52;99912.03;1088253;54;20127;-77
2022/04/14 02:37:37;;;;;;;8.00;5.82;;;;;;;11.86;68.14;99907.97;1088245;54;20030;-77
2022/04/14 02:38:43;;;;;;;7.93;5.32;;;;;;;11.90;68.43;99921.91;1087921;54;20048;-77
2022/04/14 02:39:45;;;;;;;8.90;5.28;;;;;;;11.91;67.90;99916.38;1088223;54;20034;-77
2022/04/14 02:40:49;;;;;;;8.82;5.00;;;;;;;11.83;68.21;99916.31;1089043;46;20034;-76
2022/04/14 02:41:50;;;;;;;7.95;5.25;;;;;;;11.79;68.48;99920.31;1088130;54;20823;-77
2022/04/14 02:42:56;;;;;;;10.45;5.63;;;;;;;11.79;68.49;99920.31;1088224;54;20030;-76
2022/04/14 02:43:58;;;;;;;9.07;5.07;;;;;;;11.77;68.31;99920.47;1087898;54;20069;-77
2022/04/14 02:45:02;;;;;;;11.35;5.78;;;;;;;11.79;68.13;99917.66;1087935;54;20030;-77
2022/04/14 02:46:04;;;;;;;9.60;5.45;;;;;;;11.81;67.97;99918.31;1088271;47;21019;-76
2022/04/14 02:47:09;;;;;;;8.55;4.57;;;;;;;11.85;68.02;99923.19;1088290;54;20030;-77
2022/04/14 02:48:10;;;;;;;10.23;5.10;;;;;;;11.94;67.57;99920.59;1091747;39;20693;-78
2022/04/14 02:49:17;;;;;;;8.75;4.75;;;;;;;11.95;67.63;99919.59;1088267;54;20030;-78
2022/04/14 02:50:19;;;;;;;8.32;5.03;;;;;;;11.88;67.85;99923.88;1089747;46;20045;-77
2022/04/14 02:51:23;;;;;;;7.80;4.90;;;;;;;11.82;67.81;99923.53;1090742;39;20693;-78
2022/04/14 02:52:25;;;;;;;10.18;5.53;;;;;;;11.83;67.90;99917.19;1088201;54;20034;-78
2022/04/14 02:53:29;;;;;;;8.80;5.53;;;;;;;11.85;67.74;99919.69;1087973;54;20038;-77
2022/04/14 02:54:37;;;;;;;11.18;5.07;;;;;;;11.82;67.78;99920.84;1087749;54;20835;-77
2022/04/14 02:55:41;;;;;;;11.40;5.55;;;;;;;11.85;67.93;99917.00;1088266;54;20030;-77
2022/04/14 02:56:43;;;;;;;12.43;6.30;;;;;;;11.86;67.93;99914.16;1088261;54;20026;-77
2022/04/14 02:57:47;;;;;;;12.23;5.75;;;;;;;11.89;67.83;99923.75;1088247;54;20729;-76
2022/04/14 02:58:49;;;;;;;7.82;4.70;;;;;;;11.92;67.63;99922.59;1088230;54;20045;-78
2022/04/14 02:59:53;;;;;;;7.25;4.95;;;;;;;11.94;67.36;99918.75;1098733;31;20733;-77
2022/04/14 03:00:54;;;;;;;7.03;4.88;;;;;;;12.02;67.43;99928.72;1088258;54;20041;-77
2022/04/14 03:01:58;;;;;;;7.50;5.05;;;;;;;12.05;66.85;99916.84;1088218;54;20022;-78
2022/04/14 03:03:00;;;;;;;8.15;5.22;;;;;;;12.10;67.09;99925.25;1088222;54;20030;-76
2022/04/14 03:04:05;;;;;;;9.20;4.75;;;;;;;12.19;66.66;99924.28;1089538;31;20717;-78
2022/04/14 03:05:10;;;;;;;7.63;4.78;;;;;;;12.27;66.47;99927.03;1088369;46;20030;-77
2022/04/14 03:06:14;;;;;;;8.15;4.35;;;;;;;12.32;66.13;99918.53;1088642;46;20046;-78
2022/04/14 03:07:16;;;;;;;7.53;4.75;;;;;;;12.35;66.33;99922.72;1088152;54;20011;-76
2022/04/14 03:08:20;;;;;;;7.53;5.05;;;;;;;12.38;66.02;99922.38;1088217;54;20070;-77
2022/04/14 03:09:22;;;;;;;8.15;4.80;;;;;;;12.36;66.21;99919.03;1088076;54;20034;-78
2022/04/14 03:10:26;;;;;;;7.32;4.03;;;;;;;12.42;65.91;99924.59;1088168;54;20074;-78
2022/04/14 03:11:28;;;;;;;9.13;4.70;;;;;;;12.44;65.76;99922.59;1088305;54;20015;-77
2022/04/14 03:12:42;;;;;;;6.95;4.50;;;;;;;12.42;66.27;99924.59;1088261;54;20034;-78
2022/04/14 03:13:44;;;;;;;8.40;4.65;;;;;;;12.45;65.82;99924.28;1088036;54;20038;-77
2022/04/14 03:14:49;;;;;;;7.80;4.53;;;;;;;12.51;65.74;99925.47;1088781;39;20680;-78
2022/04/14 03:15:51;;;;;;;10.35;4.38;;;;;;;12.48;65.91;99923.97;1088088;54;20102;-77
2022/04/14 03:16:57;;;;;;;7.18;4.70;;;;;;;12.37;65.94;99926.09;1087835;54;20026;-77
2022/04/14 03:17:58;;;;;;;11.52;5.53;;;;;;;12.28;66.15;99931.38;1087868;54;20045;-77
2022/04/14 03:19:02;;;;;;;9.73;5.00;;;;;;;12.14;66.84;99931.97;1087839;54;20118;-77
2022/04/14 03:20:05;;;;;;;9.70;6.20;;;;;;;12.05;67.08;99928.38;1089263;46;20037;-78
2022/04/14 03:21:13;;;;;;;9.07;5.78;;;;;;;12.11;67.25;99934.97;1088084;54;20066;-77
2022/04/14 03:22:15;;;;;;;8.95;5.40;;;;;;;12.14;66.66;99931.97;1091964;46;20061;-77
2022/04/14 03:23:19;;;;;;;13.43;6.55;;;;;;;11.94;67.17;99937.50;1088697;46;20034;-77
2022/04/14 03:24:20;;;;;;;9.70;6.45;;;;;;;11.84;67.76;99934.94;1088241;54;20023;-77
2022/04/14 03:25:24;;;;;;;9.93;6.22;;;;;;;11.70;68.08;99936.34;1088355;54;20015;-77
2022/04/14 03:26:26;;;;;;;10.82;6.72;;;;;;;11.58;68.78;99934.03;1088394;54;20019;-77
2022/04/14 03:27:30;;;;;;;10.48;6.88;;;;;;;11.55;69.01;99927.16;1091380;46;20673;-77
2022/04/14 03:28:32;;;;;;;11.50;6.97;;;;;;;11.64;68.55;99942.28;1088345;54;20034;-77
2022/04/14 03:29:36;;;;;;;11.13;7.13;;;;;;;11.70;68.45;99927.44;1088110;54;20041;-76
2022/04/14 03:30:37;;;;;;;15.65;6.95;;;;;;;11.66;68.42;99940.31;1090225;46;20037;-77
2022/04/14 03:31:41;;;;;;;10.70;6.80;;;;;;;11.72;68.41;99933.50;1088434;54;20023;-77
2022/04/14 03:32:44;;;;;;;11.60;6.45;;;;;;;11.75;67.93;99943.03;1088834;46;20029;-77
2022/04/14 03:33:48;;;;;;;10.02;5.88;;;;;;;11.71;68.27;99942.50;1088680;47;20033;-77
2022/04/14 03:34:50;;;;;;;11.82;6.68;;;;;;;11.71;68.02;99948.69;1088227;54;20041;-78
2022/04/14 03:35:54;;;;;;;10.88;6.03;;;;;;;11.73;68.25;99951.25;1088215;54;20041;-77
2022/04/14 03:37:01;;;;;;;11.77;6.32;;;;;;;11.62;68.48;99954.97;1088243;54;20039;-77
2022/04/14 03:38:03;;;;;;;13.90;6.20;;;;;;;11.54;68.64;99957.59;1088185;54;20022;-77
2022/04/14 03:39:07;;;;;;;10.15;6.88;;;;;;;11.48;69.00;99956.34;1093035;39;20834;-77
2022/04/14 03:40:10;;;;;;;12.35;6.20;;;;;;;11.44;69.47;99963.03;1091220;39;20573;-77
2022/04/14 03:41:14;;;;;;;11.35;6.63;;;;;;;11.39;69.58;99952.78;1097241;39;20621;-78
2022/04/14 03:42:16;;;;;;;15.80;7.13;;;;;;;11.35;69.75;99950.56;1088187;54;20045;-77
2022/04/14 03:43:20;;;;;;;16.75;6.72;;;;;;;11.26;70.07;99949.63;1088176;54;20313;-77
2022/04/14 03:44:22;;;;;;;14.15;7.47;;;;;;;11.19;70.69;99945.88;1088080;54;20764;-77
2022/04/14 03:45:26;;;;;;;10.80;6.30;;;;;;;11.21;70.13;99947.41;1088182;54;20661;-77
2022/04/14 03:46:27;;;;;;;12.93;6.47;;;;;;;11.30;70.21;99951.03;1087745;54;20979;-77
2022/04/14 03:47:32;;;;;;;11.52;6.93;;;;;;;11.31;69.92;99947.34;1087925;54;20042;-76
2022/04/14 03:48:33;;;;;;;10.75;6.57;;;;;;;11.30;69.65;99948.34;1088204;54;20042;-76
2022/04/14 03:49:37;;;;;;;12.60;6.10;;;;;;;11.32;69.53;99949.03;1088085;54;20030;-76
2022/04/14 03:50:39;;;;;;;10.50;6.38;;;;;;;11.37;69.34;99952.09;1088147;54;20031;-77
2022/04/14 03:51:43;;;;;;;10.32;6.35;;;;;;;11.43;69.32;99947.13;1088132;54;20031;-77
2022/04/14 03:52:50;;;;;;;16.88;6.63;;;;;;;11.42;69.07;99953.47;1088170;54;20057;-77
2022/04/14 03:53:51;;;;;;;10.45;6.15;;;;;;;11.42;69.14;99948.13;1088176;54;20023;-77
2022/04/14 03:54:56;;;;;;;10.93;6.10;;;;;;;11.47;68.94;99949.34;1088067;54;20041;-77
2022/04/14 03:55:57;;;;;;;10.73;6.40;;;;;;;11.57;68.62;99954.63;1088171;54;20018;-76
2022/04/14 03:57:01;;;;;;;9.18;6.20;;;;;;;11.58;68.54;99947.41;1088084;54;20030;-77
2022/04/14 03:58:06;;;;;;;11.27;6.55;;;;;;;11.46;68.59;99944.13;1088140;54;20034;-78
2022/04/14 03:59:07;;;;;;;11.70;6.63;;;;;;;11.38;69.34;99947.59;1088071;54;20034;-77
2022/04/14 04:00:13;;;;;;;10.18;6.55;;;;;;;11.46;68.96;99944.13;1088081;54;20057;-77
2022/04/14 04:01:14;;;;;;;13.18;7.63;;;;;;;11.50;68.60;99940.16;1088146;54;20038;-77
2022/04/14 04:02:18;;;;;;;10.98;7.60;;;;;;;11.57;68.31;99948.44;1088113;54;20667;-77
2022/04/14 04:03:20;;;;;;;10.38;6.15;;;;;;;11.66;68.17;99945.66;1087672;54;20061;-77
2022/04/14 04:04:24;;;;;;;8.80;5.90;;;;;;;11.76;67.88;99937.53;1087789;54;20767;-78
2022/04/14 04:05:26;;;;;;;9.63;5.60;;;;;;;11.83;67.52;99940.44;1090246;46;20045;-77
2022/04/14 04:06:30;;;;;;;8.85;5.93;;;;;;;11.89;67.21;99949.69;1088157;54;20026;-77
2022/04/14 04:07:31;;;;;;;8.82;5.50;;;;;;;11.92;67.13;99934.13;1088078;54;20030;-77
2022/04/14 04:08:38;;;;;;;8.32;5.78;;;;;;;11.93;67.12;99937.66;1088129;54;20122;-77
2022/04/14 04:09:40;;;;;;;9.13;6.15;;;;;;;11.89;67.33;99936.28;1088002;54;20034;-77
2022/04/14 04:10:44;;;;;;;10.82;7.40;;;;;;;11.79;67.36;99942.56;1088133;54;20031;-77
2022/04/14 04:11:45;;;;;;;13.95;7.18;;;;;;;11.71;67.58;99943.34;1088116;54;20030;-77
2022/04/14 04:12:49;;;;;;;12.15;7.13;;;;;;;11.73;67.73;99948.56;1088137;54;20034;-77
2022/04/14 04:13:51;;;;;;;11.40;7.00;;;;;;;11.62;68.13;99954.16;1088116;54;20034;-77
2022/04/14 04:14:55;;;;;;;11.80;6.25;;;;;;;11.65;68.20;99943.97;1090465;39;20630;-78
2022/04/14 04:15:59;;;;;;;12.05;6.60;;;;;;;11.66;68.13;99951.00;1088120;54;20061;-78
2022/04/14 04:17:01;;;;;;;8.38;6.05;;;;;;;11.63;68.00;99951.31;1088089;54;20038;-77
2022/04/14 04:18:07;;;;;;;8.18;6.20;;;;;;;11.62;67.97;99957.66;1087982;54;20030;-77
2022/04/14 04:19:08;;;;;;;10.20;5.90;;;;;;;11.59;67.89;99955.31;1087938;54;20042;-77
2022/04/14 04:20:13;;;;;;;9.00;5.85;;;;;;;11.59;67.86;99965.16;1087589;54;20034;-77
2022/04/14 04:21:15;;;;;;;9.43;5.22;;;;;;;11.63;67.77;99954.00;1090403;39;20625;-77
2022/04/14 04:22:19;;;;;;;12.23;6.68;;;;;;;11.49;67.98;99955.38;1088247;46;20034;-76
2022/04/14 04:23:23;;;;;;;8.80;6.03;;;;;;;11.47;67.94;99956.53;1088028;54;20031;-78
2022/04/14 04:24:28;;;;;;;10.05;6.05;;;;;;;11.47;68.20;99956.53;1087878;54;20050;-76
2022/04/14 04:25:32;;;;;;;9.07;5.93;;;;;;;11.39;68.54;99962.63;1088063;54;20099;-77
2022/04/14 04:26:34;;;;;;;10.32;6.78;;;;;;;11.30;68.67;99956.38;1088132;54;20039;-77
2022/04/14 04:27:38;;;;;;;10.18;6.60;;;;;;;11.20;69.02;99959.09;1088040;54;20030;-78
2022/04/14 04:28:39;;;;;;;10.30;6.47;;;;;;;11.15;69.21;99966.75;1088051;54;20035;-77
2022/04/14 04:29:44;;;;;;;9.75;6.22;;;;;;;11.07;69.74;99970.16;1087986;54;20042;-78
2022/04/14 04:30:45;;;;;;;10.05;7.30;;;;;;;11.07;69.69;99972.00;1088071;54;20035;-77
2022/04/14 04:31:49;;;;;;;9.15;5.93;;;;;;;11.08;69.50;99979.03;1088087;54;20098;-77
2022/04/14 04:32:51;;;;;;;10.65;5.80;;;;;;;11.11;69.55;99977.91;1088105;54;20035;-77
2022/04/14 04:33:55;;;;;;;15.93;6.90;;;;;;;11.04;69.54;99975.84;1090055;39;20692;-77
2022/04/14 04:34:56;;;;;;;10.27;6.40;;;;;;;10.95;70.21;99990.09;1087981;54;20053;-77
2022/04/14 04:36:00;;;;;;;11.52;6.20;;;;;;;10.91;70.42;99986.03;1087894;54;20725;-76
2022/04/14 04:37:02;;;;;;;13.15;6.35;;;;;;;10.88;70.63;99983.63;1087670;54;20038;-77
2022/04/14 04:38:07;;;;;;;10.75;6.45;;;;;;;10.88;70.64;99983.63;1088043;54;20061;-76
2022/04/14 04:39:08;;;;;;;10.93;5.82;;;;;;;10.92;70.18;99985.88;1087943;54;20666;-77
2022/04/14 04:40:18;;;;;;;11.55;6.43;;;;;;;10.92;70.26;99985.03;1088001;54;20880;-77
2022/04/14 04:41:19;;;;;;;10.55;6.30;;;;;;;10.95;70.22;99986.56;1092073;39;20771;-77
2022/04/14 04:42:24;;;;;;;14.35;6.43;;;;;;;10.86;70.39;99991.81;1088073;54;20998;-78
2022/04/14 04:43:25;;;;;;;10.05;6.32;;;;;;;10.80;70.68;99992.44;1087993;54;20034;-77
2022/04/14 04:44:29;;;;;;;10.68;6.93;;;;;;;10.80;70.58;99992.44;1088000;54;20030;-77
2022/04/14 04:45:31;;;;;;;11.00;6.45;;;;;;;10.91;70.64;99994.06;1088024;54;20034;-77
2022/04/14 04:46:35;;;;;;;8.25;5.60;;;;;;;11.02;70.11;100004.56;1091038;39;20911;-78
2022/04/14 04:47:37;;;;;;;13.18;6.07;;;;;;;11.11;69.72;100001.97;1088072;54;20043;-77
2022/04/14 04:48:41;;;;;;;9.15;5.55;;;;;;;11.22;69.45;100002.59;1088005;54;20018;-76
2022/04/14 04:49:45;;;;;;;9.10;5.07;;;;;;;11.31;69.28;100000.88;1088375;47;20022;-77
2022/04/14 04:50:48;;;;;;;10.55;5.60;;;;;;;11.34;68.93;100005.91;1088250;54;20027;-76
2022/04/14 04:51:52;;;;;;;9.85;5.18;;;;;;;11.39;68.64;100000.97;1088350;54;20868;-77
2022/04/14 04:52:54;;;;;;;7.38;4.82;;;;;;;11.48;68.26;99995.69;1090026;46;20038;-77
2022/04/14 04:53:58;;;;;;;8.48;5.25;;;;;;;11.56;68.50;99998.44;1088047;54;20030;-77
2022/04/14 04:55:00;;;;;;;8.25;5.18;;;;;;;11.59;68.28;99998.16;1088313;54;20031;-77
2022/04/14 04:56:07;;;;;;;8.10;4.85;;;;;;;11.64;68.07;99995.84;1088353;54;20026;-77
2022/04/14 04:57:09;;;;;;;9.43;4.97;;;;;;;11.68;68.02;99994.56;1088427;54;20041;-77
2022/04/14 04:58:14;;;;;;;8.05;4.68;;;;;;;11.67;68.08;100000.91;1095357;31;20799;-79
2022/04/14 04:59:15;;;;;;;7.63;4.97;;;;;;;11.66;68.13;100001.06;1092238;46;20053;-77
2022/04/14 05:00:19;;;;;;;8.85;4.95;;;;;;;11.70;67.71;100005.09;1088346;54;20026;-76
2022/04/14 05:01:21;;;;;;;8.15;4.90;;;;;;;11.65;68.17;100002.88;1088440;54;20023;-77
2022/04/14 05:02:25;;;;;;;9.55;5.38;;;;;;;11.68;67.98;99999.03;1088419;54;20038;-76
2022/04/14 05:03:27;;;;;;;11.60;5.78;;;;;;;11.66;68.07;100009.91;1088329;54;20657;-76
2022/04/14 05:04:31;;;;;;;11.30;5.80;;;;;;;11.59;68.38;100008.84;1088403;54;20030;-76
2022/04/14 05:05:32;;;;;;;11.18;5.60;;;;;;;11.62;68.24;100016.56;1088401;54;20732;-78
2022/04/14 05:33:28;;;;;;;14.13;6.75;;;;;;;11.92;67.65;100035.09;1086071;54;20029;-78
2022/04/14 05:34:32;;;;;;;13.30;6.45;;;;;;;11.88;67.90;100039.06;1088388;54;20030;-79
2022/04/14 05:35:37;;;;;;;20.30;6.80;;;;;;;11.84;68.18;100038.53;1088349;54;20023;-78
2022/04/14 05:36:38;;;;;;;17.38;6.43;;;;;;;11.93;68.10;100037.63;1088459;54;20023;-79
2022/04/14 05:37:43;;;;;;;11.77;5.50;;;;;;;11.97;67.99;100038.13;1088387;54;20053;-79
2022/04/14 05:38:47;;;;;;;15.00;6.10;;;;;;;12.01;67.63;100045.75;1088351;54;20130;-79
2022/04/14 05:39:48;;;;;;;13.35;5.78;;;;;;;12.04;67.71;100038.41;1089338;46;20046;-79
2022/04/14 05:40:53;;;;;;;13.25;6.68;;;;;;;12.00;67.66;100040.56;1088375;54;20658;-80
2022/04/14 05:41:54;;;;;;;12.65;5.45;;;;;;;11.91;68.07;100038.78;1088319;54;20022;-79
2022/04/14 05:42:58;;;;;;;14.65;6.13;;;;;;;11.97;68.07;100044.38;1087978;54;20053;-79
2022/04/14 05:44:00;;;;;;;12.35;6.43;;;;;;;11.92;68.30;100041.28;1088133;54;20038;-78
2022/04/14 05:45:04;;;;;;;10.82;6.05;;;;;;;11.88;68.19;100036.38;1088207;54;20030;-78
2022/04/14 05:46:09;;;;;;;12.88;6.57;;;;;;;11.83;68.67;100047.56;1088345;54;20030;-79
2022/04/14 05:47:13;;;;;;;20.10;7.22;;;;;;;11.67;68.91;100038.38;1088394;54;20030;-78
2022/04/14 05:48:18;;;;;;;26.92;7.95;;;;;;;11.60;69.54;100047.16;1088321;54;20034;-78
2022/04/14 05:49:20;;;;;;;18.55;8.07;;;;;;;11.49;69.77;100045.56;1095366;39;20837;-79
2022/04/14 05:50:27;;;;;;;12.98;7.47;;;;;;;11.44;70.33;100048.69;1088275;54;20069;-77
2022/04/14 05:51:30;;;;;;;12.88;7.10;;;;;;;11.45;70.01;100049.50;1088321;54;20034;-78
2022/04/14 05:52:34;;;;;;;14.82;7.15;;;;;;;11.44;70.03;100051.38;1088359;54;20029;-79
2022/04/14 05:53:38;;;;;;;17.50;7.13;;;;;;;11.49;69.88;100050.91;1088298;54;20042;-79
2022/04/14 05:54:40;;;;;;;11.20;7.22;;;;;;;11.49;69.87;100050.91;1088315;54;20042;-78
2022/04/14 05:55:45;;;;;;;12.63;6.88;;;;;;;11.43;70.19;100047.00;1088675;46;20042;-78
2022/04/14 05:56:46;;;;;;;14.90;7.28;;;;;;;11.46;70.09;100056.56;1088298;54;20046;-79
2022/04/14 05:57:50;;;;;;;12.30;6.65;;;;;;;11.48;69.73;100049.22;1088881;46;20034;-78
2022/04/14 05:58:56;;;;;;;11.02;7.18;;;;;;;11.47;69.73;100055.56;1088108;54;20034;-77
2022/04/14 05:59:57;;;;;;;12.07;7.43;;;;;;;11.48;69.78;100049.22;1087858;54;20038;-78
2022/04/14 06:01:01;;;;;;;12.40;6.80;;;;;;;11.51;69.58;100054.28;1088290;54;20037;-78
2022/04/14 06:02:04;;;;;;;12.98;7.00;;;;;;;11.47;69.52;100059.09;1088292;54;20050;-78
2022/04/14 06:03:08;;;;;;;13.90;6.95;;;;;;;11.45;69.55;100055.72;1088512;46;20019;-79
2022/04/14 06:04:09;;;;;;;13.23;7.65;;;;;;;11.44;69.79;100056.72;1088256;54;20042;-78
2022/04/14 06:05:14;;;;;;;9.82;7.15;;;;;;;11.38;69.93;100060.84;1089166;46;20057;-79
2022/04/14 06:06:18;;;;;;;12.93;7.32;;;;;;;11.37;70.04;100061.81;1088269;54;20030;-78
2022/04/14 06:07:22;;;;;;;17.55;8.00;;;;;;;11.31;70.12;100059.75;1088302;54;20027;-77
2022/04/14 06:08:24;;;;;;;11.77;8.60;;;;;;;11.36;70.28;100061.97;1088296;54;20039;-79
2022/04/14 06:09:28;;;;;;;14.70;8.48;;;;;;;11.39;70.31;100061.66;1091469;46;20034;-79
2022/04/14 06:10:32;;;;;;;13.75;8.52;;;;;;;11.42;70.18;100061.38;1088231;54;20026;-78
2022/04/14 06:11:34;;;;;;;13.50;8.55;;;;;;;11.49;69.97;100061.63;1088198;54;20074;-78
2022/04/14 06:12:38;;;;;;;13.27;8.15;;;;;;;11.50;69.46;100056.09;1088284;54;20034;-79
2022/04/14 06:13:40;;;;;;;11.95;7.35;;;;;;;11.68;69.13;100056.13;1088572;46;20034;-79
2022/04/14 06:14:45;;;;;;;12.38;7.40;;;;;;;11.81;68.60;100049.53;1088330;54;20034;-78
2022/04/14 06:15:49;;;;;;;9.05;6.50;;;;;;;11.91;68.37;100053.00;1088068;54;20034;-77
2022/04/14 06:16:55;;;;;;;10.68;7.18;;;;;;;11.99;68.00;100057.63;1088735;46;20041;-78
2022/04/14 06:17:59;;;;;;;11.65;7.15;;;;;;;12.03;68.17;100050.97;1092366;46;20046;-78
2022/04/14 06:19:00;;;;;;;9.93;6.63;;;;;;;12.10;67.83;100053.84;1092021;46;20038;-78
2022/04/14 06:20:05;;;;;;;9.90;6.93;;;;;;;12.20;67.69;100056.47;1088326;54;20035;-78
2022/04/14 06:21:16;;;;;;;10.23;7.00;;;;;;;12.22;67.61;100057.97;1088618;54;20045;-78
2022/04/14 06:22:23;;;;;;;11.75;8.00;;;;;;;12.17;67.72;100060.31;1089340;46;20022;-78
2022/04/14 06:23:24;;;;;;;18.67;8.73;;;;;;;11.97;68.33;100063.16;1090672;46;20026;-78
2022/04/14 06:24:36;;;;;;;16.50;10.48;;;;;;;11.96;68.99;100068.59;1089350;39;20700;-79
2022/04/14 06:25:41;;;;;;;14.27;9.77;;;;;;;12.02;68.45;100060.84;1088363;54;20046;-78
2022/04/14 06:26:45;;;;;;;13.85;8.93;;;;;;;12.22;67.99;100066.03;1088358;54;20710;-79
2022/04/14 06:27:49;;;;;;;12.65;8.68;;;;;;;12.26;68.05;100064.72;1090008;46;20038;-79
2022/04/14 06:28:51;;;;;;;13.05;8.98;;;;;;;12.27;68.31;100061.06;1088379;54;20043;-78
2022/04/14 06:29:55;;;;;;;13.23;8.98;;;;;;;12.25;68.27;100063.03;1088323;54;20030;-78
2022/04/14 06:30:59;;;;;;;15.85;9.80;;;;;;;12.32;68.39;100057.91;1088342;54;20038;-78
2022/04/14 06:32:01;;;;;;;13.50;9.57;;;;;;;12.38;68.28;100061.78;1088011;54;20030;-79
2022/04/14 06:33:06;;;;;;;13.57;9.80;;;;;;;12.45;68.33;100062.84;1087902;54;21182;-79
2022/04/14 06:34:08;;;;;;;12.15;8.93;;;;;;;12.51;68.40;100064.91;1087805;54;20035;-78
2022/04/14 06:35:15;;;;;;;11.70;8.77;;;;;;;12.63;68.45;100055.59;1088263;54;20120;-78
2022/04/14 06:36:16;;;;;;;17.58;9.65;;;;;;;12.58;68.70;100055.22;1088351;54;20042;-79
2022/04/14 06:37:23;;;;;;;12.82;8.85;;;;;;;12.64;68.60;100059.97;1088339;54;20031;-79
2022/04/14 06:38:26;;;;;;;17.67;11.27;;;;;;;12.56;69.19;100059.94;1088294;54;20030;-79
2022/04/14 06:39:30;;;;;;;19.55;12.15;;;;;;;12.58;69.20;100062.44;1088241;54;20038;-78
2022/04/14 06:40:31;;;;;;;17.25;11.90;;;;;;;12.66;69.47;100058.97;1091245;39;20633;-79
2022/04/14 06:41:36;;;;;;;16.42;11.90;;;;;;;12.64;69.28;100067.16;1093374;39;20717;-79
2022/04/14 06:42:37;;;;;;;19.42;12.10;;;;;;;12.71;69.46;100059.34;1088316;54;20035;-78
2022/04/14 06:43:41;;;;;;;17.05;11.45;;;;;;;12.80;69.22;100063.75;1095966;39;20634;-80
2022/04/14 06:45:49;;;;;;;20.90;15.07;;;;;;;12.65;70.68;100063.47;1088241;54;20015;-76
2022/04/14 06:46:50;;;;;;;19.65;13.73;;;;;;;12.76;70.47;100065.91;1088277;54;20031;-79
2022/04/14 06:47:54;;;;;;;17.60;12.00;;;;;;;12.92;69.95;100065.16;1088247;54;20014;-79
2022/04/14 06:48:56;;;;;;;21.23;12.95;;;;;;;12.80;70.48;100067.25;1087837;54;20046;-79
2022/04/14 06:50:00;;;;;;;21.00;15.15;;;;;;;12.64;71.27;100068.03;1087897;54;20042;-78
2022/04/14 06:51:04;;;;;;;23.67;16.50;;;;;;;12.54;71.86;100066.41;1088272;54;20046;-78
2022/04/14 06:52:09;;;;;;;21.60;15.60;;;;;;;12.61;71.51;100071.00;1088169;54;20042;-78